sensor_id;sensor_type;location;lat;lon;timestamp;pressure;altitude;pressure_sealevel;temperature;humidity
15558;BME280;7880;50.110;9.372;2022-09-09T04:02:24;13.013583253422984;;;12.812;100.0
15558;BME280;7880;50.110;9.372;2022-09-09T04:07:38;13.24553606864647;;;13.062;100.0
15558;BME280;7880;50.110;9.372;2022-09-09T04:12:32;13.336300381371984;;;13.187;100.0
15558;BME280;7880;50.110;9.372;2022-09-09T04:17:36;13.275790829077597;;;13.187;100.0
15558;BME280;7880;50.110;9.372;2022-09-09T04:22:44;13.205196404369781;;;13.062;100.0
15558;BME280;7880;50.110;9.372;2022-09-09T04:27:53;13.341342845954932;;;13.25;100.0
15558;BME280;7880;50.110;9.372;2022-09-09T04:32:51;13.28587575154961;;;13.187;100.0
15558;BME280;7880;50.110;9.372;2022-09-09T04:37:56;12.927861716691405;;;12.875;100.0
15558;BME280;7880;50.110;9.372;2022-09-09T04:43:02;13.05392282922403;;;12.875;100.0
15558;BME280;7880;50.110;9.372;2022-09-09T04:48:04;12.953073924646015;;;12.812;100.0
15558;BME280;7880;50.110;9.372;2022-09-09T04:53:07;13.043837933527538;;;12.812;100.0
15558;BME280;7880;50.110;9.372;2022-09-09T04:58:13;13.094262423651525;;;12.937;100.0
15558;BME280;7880;50.110;9.372;2022-09-09T05:03:24;12.973243696248392;;;12.812;100.0
15558;BME280;7880;50.110;9.372;2022-09-09T05:08:23;13.05392282922403;;;12.812;100.0
15558;BME280;7880;50.110;9.372;2022-09-09T05:13:32;12.892564637778559;;;12.75;100.0
15558;BME280;7880;50.110;9.372;2022-09-09T05:18:31;12.912734395411098;;;12.687;100.0
15558;BME280;7880;50.110;9.372;2022-09-09T05:23:37;12.88752219909802;;;12.687;100.0
15558;BME280;7880;50.110;9.372;2022-09-09T05:28:40;12.892564637778559;;;12.687;100.0
15558;BME280;7880;50.110;9.372;2022-09-09T05:33:51;13.134602036705473;;;12.875;100.0
15558;BME280;7880;50.110;9.372;2022-09-09T05:38:50;13.069050174951553;;;12.937;100.0
15558;BME280;7880;50.110;9.372;2022-09-09T05:43:54;13.235451150831068;;;13.062;100.0
15558;BME280;7880;50.110;9.372;2022-09-09T05:48:58;13.527914240123938;;;13.375;100.0
15558;BME280;7880;50.110;9.372;2022-09-09T05:54:01;13.563211575732566;;;13.437;100.0
15558;BME280;7880;50.110;9.372;2022-09-09T05:59:06;13.613636365626007;;;13.562;100.0
15558;BME280;7880;50.110;9.372;2022-09-09T06:04:13;13.553126621246339;;;13.5;100.0
15558;BME280;7880;50.110;9.372;2022-09-09T06:09:13;13.558169098343933;;;13.5;100.0
15558;BME280;7880;50.110;9.372;2022-09-09T06:14:18;13.830463293805952;;;13.75;100.0
15558;BME280;7880;50.110;9.372;2022-09-09T06:19:20;13.946440708846785;;;13.875;100.0
15558;BME280;7880;50.110;9.372;2022-09-09T06:24:23;14.067460784339346;;;14.0;100.0
15558;BME280;7880;50.110;9.372;2022-09-09T06:29:30;14.309501438238659;;;14.25;100.0
15558;BME280;7880;50.110;9.372;2022-09-09T06:34:38;14.415394435176859;;;14.375;100.0
15558;BME280;7880;50.110;9.372;2022-09-09T06:39:36;14.511202495382168;;;14.5;100.0
15558;BME280;7880;50.110;9.372;2022-09-09T06:44:46;14.637265892565484;;;14.625;100.0
15558;BME280;7880;50.110;9.372;2022-09-09T06:49:44;14.818797504069517;;;14.812;100.0
15558;BME280;7880;50.110;9.372;2022-09-09T06:54:48;14.838967706408585;;;14.875;100.0
15558;BME280;7880;50.110;9.372;2022-09-09T06:59:55;14.904520896170288;;;14.937;100.0
15558;BME280;7880;50.110;9.372;2022-09-09T07:05:01;15.030584860878298;;;15.0;100.0
15558;BME280;7880;50.110;9.372;2022-09-09T07:10:02;14.904520896170288;;;14.937;100.0
15558;BME280;7880;50.110;9.372;2022-09-09T07:15:07;15.086053062975406;;;15.062;100.0
15558;BME280;7880;50.110;9.372;2022-09-09T07:20:16;15.191947001131485;;;15.187;100.0
15558;BME280;7880;50.110;9.372;2022-09-09T07:25:17;15.23228758276091;;;15.25;100.0
15558;BME280;7880;50.110;9.372;2022-09-09T07:30:19;15.454161114670569;;;15.437;100.0
15558;BME280;7880;50.110;9.372;2022-09-09T07:35:21;15.575183278654004;;;15.562;100.0
15558;BME280;7880;50.110;9.372;2022-09-09T07:40:24;15.590311060938983;;;15.625;100.0
15558;BME280;7880;50.110;9.372;2022-09-09T07:45:28;15.555012906348566;;;15.562;99.78812061215255
15558;BME280;7880;50.110;9.372;2022-09-09T07:50:33;15.812185502052307;;;15.75;98.54029959247008
15558;BME280;7880;50.110;9.372;2022-09-09T07:55:40;16.02397526691202;;;16.0;98.61209584967801
15558;BME280;7880;50.110;9.372;2022-09-09T08:00:44;16.402172552520643;;;16.437;95.51360466235941
15558;BME280;7880;50.110;9.372;2022-09-09T08:05:31;16.492940144665774;;;16.5;95.24999783107152
15558;BME280;7880;50.110;9.372;2022-09-09T08:10:25;16.714816877996782;;;16.75;93.67733958016063
15558;BME280;7880;50.110;9.372;2022-09-09T08:15:29;16.624049055349314;;;16.687;95.50048700636422
15558;BME280;7880;50.110;9.372;2022-09-09T08:20:36;16.508068085857666;;;16.5;95.89325394366514
15558;BME280;7880;50.110;9.372;2022-09-09T08:25:40;16.669432954886;;;16.625;94.52019112063282
15558;BME280;7880;50.110;9.372;2022-09-09T08:30:48;16.58370783110731;;;16.562;93.75605451335973
15558;BME280;7880;50.110;9.372;2022-09-09T08:35:50;16.770286149368623;;;16.687;93.54116101547396
15558;BME280;7880;50.110;9.372;2022-09-09T08:40:56;16.51311073350371;;;16.562;94.40979141187586
15558;BME280;7880;50.110;9.372;2022-09-09T08:46:03;16.51815338144079;;;16.437;96.99137545475023
15558;BME280;7880;50.110;9.372;2022-09-09T08:51:04;16.467726915166715;;;16.375;100.0
15558;BME280;7880;50.110;9.372;2022-09-09T08:56:11;16.437471049372107;;;16.312;100.0
15558;BME280;7880;50.110;9.372;2022-09-09T09:01:24;16.306362418667412;;;16.187;100.0
15558;BME280;7880;50.110;9.372;2022-09-09T09:06:25;16.770286149368623;;;16.5;100.0
15558;BME280;7880;50.110;9.372;2022-09-09T09:11:19;16.724902197445044;;;16.625;99.84834534602956
15558;BME280;7880;50.110;9.372;2022-09-09T09:16:27;16.87113946026657;;;16.812;98.87301188948246
15558;BME280;7880;50.110;9.372;2022-09-09T09:21:34;16.911480817222035;;;16.875;98.24265188460251
15558;BME280;7880;50.110;9.372;2022-09-09T09:26:33;17.087974472908535;;;17.0;99.12054992022979
15558;BME280;7880;50.110;9.372;2022-09-09T09:31:48;16.96695021344931;;;16.937;95.51385498969789
15558;BME280;7880;50.110;9.372;2022-09-09T09:36:41;17.188828150514745;;;17.0;93.60506929235387
15558;BME280;7880;50.110;9.372;2022-09-09T09:41:44;17.435920152650215;;;17.375;90.16459756454316
15558;BME280;7880;50.110;9.372;2022-09-09T09:46:53;17.50147529091337;;;17.437;89.25186282836582
15558;BME280;7880;50.110;9.372;2022-09-09T09:52:00;17.55190235381597;;;17.5;90.44980298550524
15558;BME280;7880;50.110;9.372;2022-09-09T09:57:11;17.713269150682027;;;17.625;89.58017629925409
15558;BME280;7880;50.110;9.372;2022-09-09T10:02:19;17.66788470894098;;;17.625;84.78563999056661
15558;BME280;7880;50.110;9.372;2022-09-09T10:07:11;17.66284199464717;;;17.625;85.57932614112191
15558;BME280;7880;50.110;9.372;2022-09-09T10:12:28;17.461133661546047;;;17.437;87.63967323293701
15558;BME280;7880;50.110;9.372;2022-09-09T10:17:22;17.491389881825306;;;17.375;88.26600484946403
15558;BME280;7880;50.110;9.372;2022-09-09T10:22:27;18.318397293199087;;;18.125;85.12755479354132
15558;BME280;7880;50.110;9.372;2022-09-09T10:27:32;18.308311789814617;;;18.375;83.3430008660309
15558;BME280;7880;50.110;9.372;2022-09-09T10:32:41;18.041046374314465;;;18.062;84.9856730552162
15558;BME280;7880;50.110;9.372;2022-09-09T10:37:43;18.15702937874594;;;18.062;83.6690312285921
15558;BME280;7880;50.110;9.372;2022-09-09T10:42:43;18.182243095734158;;;18.125;84.40837749906136
15558;BME280;7880;50.110;9.372;2022-09-09T10:47:58;17.99061902910471;;;17.937;80.3678995564317
15558;BME280;7880;50.110;9.372;2022-09-09T10:52:56;17.88976442599669;;;17.875;76.64414026861326
15558;BME280;7880;50.110;9.372;2022-09-09T10:57:54;18.15702937874594;;;18.062;76.26122651072318
15558;BME280;7880;50.110;9.372;2022-09-09T11:02:58;18.40916687604622;;;18.25;77.61079605627647
15558;BME280;7880;50.110;9.372;2022-09-09T11:08:02;18.499936553189762;;;18.5;76.23774876407735
15558;BME280;7880;50.110;9.372;2022-09-09T11:13:05;18.469679983664538;;;18.437;77.20412766218143
15558;BME280;7880;50.110;9.372;2022-09-09T11:18:14;18.37891033795313;;;18.312;75.0652603611775
15558;BME280;7880;50.110;9.372;2022-09-09T11:23:32;18.298226287594296;;;18.25;75.13871918347336
15558;BME280;7880;50.110;9.372;2022-09-09T11:28:36;18.348653810337417;;;18.187;76.4118578949925
15558;BME280;7880;50.110;9.372;2022-09-09T11:33:47;18.358739318378504;;;18.25;72.4546248106358
15558;BME280;7880;50.110;9.372;2022-09-09T11:38:29;18.338568303460487;;;18.25;72.05108224432712
15558;BME280;7880;50.110;9.372;2022-09-09T11:43:43;18.33352555045858;;;18.25;70.6193809279022
15558;BME280;7880;50.110;9.372;2022-09-09T11:48:58;18.499936553189762;;;18.375;70.12224821552292
15558;BME280;7880;50.110;9.372;2022-09-09T11:53:48;18.77224615039886;;;18.625;69.32092487326713
15558;BME280;7880;50.110;9.372;2022-09-09T11:58:55;19.599265685264253;;;19.562;68.02434543165157
15558;BME280;7880;50.110;9.372;2022-09-09T12:04:05;18.883187340717996;;;18.937;70.68200960596869
15558;BME280;7880;50.110;9.372;2022-09-09T12:08:58;19.39755288181477;;;19.312;68.3977929225428
15558;BME280;7880;50.110;9.372;2022-09-09T12:14:03;18.989085881062785;;;19.0;70.08846827542865
15558;BME280;7880;50.110;9.372;2022-09-09T12:19:15;18.72686115859542;;;18.75;70.59517660604034
15558;BME280;7880;50.110;9.372;2022-09-09T12:24:14;17.708226433768868;;;17.875;76.15765769896636
15558;BME280;7880;50.110;9.372;2022-09-09T12:29:23;14.601968123018741;;;14.437;84.34933156305034
15558;BME280;7880;50.110;9.372;2022-09-09T12:34:23;15.060840239474782;;;14.312;90.08102386656344
15558;BME280;7880;50.110;9.372;2022-09-09T12:39:29;15.479374051676132;;;14.812;95.11660839180297
15558;BME280;7880;50.110;9.372;2022-09-09T12:44:29;15.645779618393863;;;15.062;98.48012928339868
15558;BME280;7880;50.110;9.372;2022-09-09T12:49:36;15.913037707004696;;;15.312;99.98172945282397
15558;BME280;7880;50.110;9.372;2022-09-09T12:54:35;16.462684270140016;;;15.875;100.0
15558;BME280;7880;50.110;9.372;2022-09-09T12:59:43;17.16865740568028;;;16.687;90.74401146155604
15558;BME280;7880;50.110;9.372;2022-09-09T13:04:41;17.108145199116553;;;16.812;94.10984666188746
15558;BME280;7880;50.110;9.372;2022-09-09T13:09:38;17.037547677761175;;;16.75;95.10923943212899
15558;BME280;7880;50.110;9.372;2022-09-09T13:14:39;17.208998900005827;;;16.875;100.0
15558;BME280;7880;50.110;9.372;2022-09-09T13:19:46;17.461133661546047;;;17.187;97.95215715491354
15558;BME280;7880;50.110;9.372;2022-09-09T13:24:59;17.335066189826467;;;17.187;94.47893574673064
15558;BME280;7880;50.110;9.372;2022-09-09T13:29:52;17.274553868011573;;;17.125;100.0
15558;BME280;7880;50.110;9.372;2022-09-09T13:35:23;17.37540776098613;;;17.125;94.79222410184416
15558;BME280;7880;50.110;9.372;2022-09-09T13:40:19;17.385493156686426;;;17.25;92.11540477038977
15558;BME280;7880;50.110;9.372;2022-09-09T13:45:16;17.36532236644998;;;17.25;92.11290772654539
15558;BME280;7880;50.110;9.372;2022-09-09T13:50:19;17.309852717310424;;;17.187;96.04741921710536
15558;BME280;7880;50.110;9.372;2022-09-09T13:55:17;17.239255032973595;;;17.062;93.64866785533331
15558;BME280;7880;50.110;9.372;2022-09-09T14:00:18;17.17370009145234;;;16.937;98.72954008800443
15558;BME280;7880;50.110;9.372;2022-09-09T14:05:35;17.350194276828553;;;17.187;90.1915915275656
15558;BME280;7880;50.110;9.372;2022-09-09T14:10:26;17.314895411231554;;;17.187;88.86821249767236
15558;BME280;7880;50.110;9.372;2022-09-09T14:15:35;17.294724637293257;;;17.125;85.92791460595404
15558;BME280;7880;50.110;9.372;2022-09-09T14:20:33;17.360279669618468;;;17.187;88.07528705207379
15558;BME280;7880;50.110;9.372;2022-09-09T14:25:36;17.21404158810619;;;17.125;84.43337940410738
15558;BME280;7880;50.110;9.372;2022-09-09T14:30:48;17.188828150514745;;;16.937;87.53952347873201
15558;BME280;7880;50.110;9.372;2022-09-09T14:35:46;17.269511176418746;;;17.062;84.0184522986324
15558;BME280;7880;50.110;9.372;2022-09-09T14:40:50;17.239255032973595;;;17.0;85.65027530443915
15558;BME280;7880;50.110;9.372;2022-09-09T14:45:56;17.239255032973595;;;17.062;83.83412696021574
15558;BME280;7880;50.110;9.372;2022-09-09T14:51:07;17.239255032973595;;;17.062;85.48521189170638
15558;BME280;7880;50.110;9.372;2022-09-09T14:56:06;17.289681944536277;;;17.125;86.24150018060847
15558;BME280;7880;50.110;9.372;2022-09-09T15:01:11;17.506517995893955;;;17.312;88.07076931012044
15558;BME280;7880;50.110;9.372;2022-09-09T15:06:14;17.28463925207034;;;17.25;84.41427459520655
15558;BME280;7880;50.110;9.372;2022-09-09T15:11:19;17.521646112581948;;;17.437;83.54932108531115
15558;BME280;7880;50.110;9.372;2022-09-09T15:16:25;17.54181693890714;;;17.437;79.47031252557943
15558;BME280;7880;50.110;9.372;2022-09-09T15:21:27;17.40566395157948;;;17.312;82.5030375464456
15558;BME280;7880;50.110;9.372;2022-09-09T15:26:31;17.577115896181205;;;17.437;82.451220931457
15558;BME280;7880;50.110;9.372;2022-09-09T15:31:33;17.456090959184802;;;17.437;81.08420187745033
15558;BME280;7880;50.110;9.372;2022-09-09T15:36:38;17.486347177717835;;;17.437;81.58863061407453
15558;BME280;7880;50.110;9.372;2022-09-09T15:41:48;17.279596559895435;;;17.25;79.04515938469252
15558;BME280;7880;50.110;9.372;2022-09-09T15:46:46;17.087974472908535;;;17.0;77.31996024248097
15558;BME280;7880;50.110;9.372;2022-09-09T15:51:51;17.012334291101432;;;16.875;79.48376331082859
15558;BME280;7880;50.110;9.372;2022-09-09T15:56:57;17.002248938474803;;;16.812;82.24336472298403
15558;BME280;7880;50.110;9.372;2022-09-09T16:01:57;16.90139547623694;;;16.75;82.58990083209623
15558;BME280;7880;50.110;9.372;2022-09-09T16:07:02;16.90139547623694;;;16.75;81.90819345787978
15558;BME280;7880;50.110;9.372;2022-09-09T16:12:06;16.89635280618095;;;16.75;85.51165264730479
15558;BME280;7880;50.110;9.372;2022-09-09T16:17:10;16.92660883088247;;;16.75;84.51979843492857
15558;BME280;7880;50.110;9.372;2022-09-09T16:22:15;16.96695021344931;;;16.812;83.50726926094373
15558;BME280;7880;50.110;9.372;2022-09-09T16:27:18;16.790456802234985;;;16.625;83.2918368896137
15558;BME280;7880;50.110;9.372;2022-09-09T16:32:22;17.350194276828553;;;17.187;83.110362347238
15558;BME280;7880;50.110;9.372;2022-09-09T16:37:26;17.032504999847152;;;17.0;82.4648649201431
15558;BME280;7880;50.110;9.372;2022-09-09T16:42:31;16.740030178800225;;;16.625;82.64252200225945
15558;BME280;7880;50.110;9.372;2022-09-09T16:47:36;16.74507283983403;;;16.562;84.76636513094138
15558;BME280;7880;50.110;9.372;2022-09-09T16:52:48;16.760200824681668;;;16.562;84.82119518114754
15558;BME280;7880;50.110;9.372;2022-09-09T16:57:44;16.90139547623694;;;16.687;85.77822407576055
15558;BME280;7880;50.110;9.372;2022-09-09T17:02:48;16.573622527957195;;;16.562;87.87332688608043
15558;BME280;7880;50.110;9.372;2022-09-09T17:07:57;16.492940144665774;;;16.375;88.35272198883614
15558;BME280;7880;50.110;9.372;2022-09-09T17:12:57;16.51815338144079;;;16.312;89.63014156048027
15558;BME280;7880;50.110;9.372;2022-09-09T17:18:13;16.28619187755976;;;16.187;90.8440932399364
15558;BME280;7880;50.110;9.372;2022-09-09T17:23:06;16.276106608752162;;;16.125;89.63321717897537
15558;BME280;7880;50.110;9.372;2022-09-09T17:28:13;16.28619187755976;;;16.062;90.48866395180819
15558;BME280;7880;50.110;9.372;2022-09-09T17:33:14;16.129870341863715;;;16.0;91.92786210867472
15558;BME280;7880;50.110;9.372;2022-09-09T17:38:17;16.03910312690423;;;15.812;93.88757157608825
15558;BME280;7880;50.110;9.372;2022-09-09T17:43:20;15.973549085855485;;;15.812;93.91620825249734
15558;BME280;7880;50.110;9.372;2022-09-09T17:48:24;15.938250776432687;;;15.75;94.21349293522809
15558;BME280;7880;50.110;9.372;2022-09-09T17:53:36;15.913037707004696;;;15.687;94.9408202029542
15558;BME280;7880;50.110;9.372;2022-09-09T17:58:36;15.877739422029117;;;15.625;94.70857931163496
15558;BME280;7880;50.110;9.372;2022-09-09T18:03:40;15.686120409570867;;;15.562;95.63053801812647
15558;BME280;7880;50.110;9.372;2022-09-09T18:08:46;15.76680204780423;;;15.562;94.60941119083147
15558;BME280;7880;50.110;9.372;2022-09-09T18:13:49;15.771844652667642;;;15.562;94.01726953727797
15558;BME280;7880;50.110;9.372;2022-09-09T18:18:56;15.786972469004104;;;15.562;93.46335800473683
15558;BME280;7880;50.110;9.372;2022-09-09T18:24:00;15.62560922979028;;;15.437;94.53278918224345
15558;BME280;7880;50.110;9.372;2022-09-09T18:29:02;15.544927721942077;;;15.375;92.99316961565634
15558;BME280;7880;50.110;9.372;2022-09-09T18:34:06;15.560055498988367;;;15.312;92.5663782924057
15558;BME280;7880;50.110;9.372;2022-09-09T18:39:09;15.524757356621558;;;15.375;92.80538372924
15558;BME280;7880;50.110;9.372;2022-09-09T18:44:15;15.504586995957652;;;15.25;91.97716981757084
15558;BME280;7880;50.110;9.372;2022-09-09T18:49:19;15.454161114670569;;;15.25;93.65354898449138
15558;BME280;7880;50.110;9.372;2022-09-09T18:54:24;15.444075941905613;;;15.25;92.62584381964966
15558;BME280;7880;50.110;9.372;2022-09-09T18:59:25;15.433990770304808;;;15.187;93.93130541618412
15558;BME280;7880;50.110;9.372;2022-09-09T19:04:30;15.34322427828447;;;15.125;94.56468958213011
15558;BME280;7880;50.110;9.372;2022-09-09T19:09:33;15.373479765147204;;;15.125;93.81242506287103
15558;BME280;7880;50.110;9.372;2022-09-09T19:14:47;15.262543031206587;;;15.125;94.89773956074843
15558;BME280;7880;50.110;9.372;2022-09-09T19:19:41;15.32305395953008;;;15.062;95.90997163374489
15558;BME280;7880;50.110;9.372;2022-09-09T19:24:48;15.318011380569079;;;15.062;95.74017916670348
15558;BME280;7880;50.110;9.372;2022-09-09T19:29:48;15.24237273107865;;;15.062;95.6244093659238
15558;BME280;7880;50.110;9.372;2022-09-09T19:34:52;15.171776717301691;;;15.0;95.1288928434126
15558;BME280;7880;50.110;9.372;2022-09-09T19:40:14;15.262543031206587;;;15.062;94.89245379646152
15558;BME280;7880;50.110;9.372;2022-09-09T19:45:00;15.126393595710397;;;14.937;95.46104324810771
15558;BME280;7880;50.110;9.372;2022-09-09T19:50:06;15.176819287822582;;;15.0;96.3711482730007
15558;BME280;7880;50.110;9.372;2022-09-09T19:55:09;14.970074135117466;;;14.812;96.49637994025844
15558;BME280;7880;50.110;9.372;2022-09-09T20:00:13;15.020499737007777;;;14.75;96.50847961804521
15558;BME280;7880;50.110;9.372;2022-09-09T20:05:20;14.859137913404265;;;14.687;99.72069153124016
15558;BME280;7880;50.110;9.372;2022-09-09T20:10:23;14.722989106550813;;;14.5;99.76453540836678
15558;BME280;7880;50.110;9.372;2022-09-09T20:15:26;14.596925585676217;;;14.375;100.0
15558;BME280;7880;50.110;9.372;2022-09-09T20:20:30;14.455734658247092;;;14.312;100.0
15558;BME280;7880;50.110;9.372;2022-09-09T20:25:35;14.450692129344679;;;14.187;100.0
15558;BME280;7880;50.110;9.372;2022-09-09T20:30:39;14.576755439216504;;;14.312;100.0
15558;BME280;7880;50.110;9.372;2022-09-09T20:35:47;14.465819716925035;;;14.187;100.0
15558;BME280;7880;50.110;9.372;2022-09-09T20:40:48;14.571712903329171;;;14.25;100.0
15558;BME280;7880;50.110;9.372;2022-09-09T20:45:53;14.314543958992;;;14.062;100.0
15558;BME280;7880;50.110;9.372;2022-09-09T20:51:03;14.375054230733076;;;14.125;100.0
15558;BME280;7880;50.110;9.372;2022-09-09T20:56:10;14.193523541238392;;;13.937;100.0
15558;BME280;7880;50.110;9.372;2022-09-09T21:01:06;14.203608569648349;;;13.937;100.0
15558;BME280;7880;50.110;9.372;2022-09-09T21:06:16;14.09267332116724;;;13.812;100.0
15558;BME280;7880;50.110;9.372;2022-09-09T21:11:14;14.354884135496103;;;14.125;100.0
15558;BME280;7880;50.110;9.372;2022-09-09T21:16:22;14.102758337935665;;;13.875;100.0
15558;BME280;7880;50.110;9.372;2022-09-09T21:21:23;14.01199322892935;;;13.812;100.0
15558;BME280;7880;50.110;9.372;2022-09-09T21:26:27;13.966610709787346;;;13.812;100.0
15558;BME280;7880;50.110;9.372;2022-09-09T21:31:31;14.122928374964976;;;13.812;100.0
15558;BME280;7880;50.110;9.372;2022-09-09T21:36:40;14.233863661863143;;;14.0;100.0
15558;BME280;7880;50.110;9.372;2022-09-09T21:41:42;14.133013395225863;;;13.937;100.0
15558;BME280;7880;50.110;9.372;2022-09-09T21:46:44;13.976695712003856;;;13.812;100.0
15558;BME280;7880;50.110;9.372;2022-09-09T21:51:50;14.223778629960725;;;14.0;100.0
15558;BME280;7880;50.110;9.372;2022-09-09T21:57:06;14.23890617825091;;;14.062;100.0
15558;BME280;7880;50.110;9.372;2022-09-09T22:01:56;14.163268462993438;;;13.875;100.0
15558;BME280;7880;50.110;9.372;2022-09-09T22:07:00;14.183438513992588;;;14.0;100.0
15558;BME280;7880;50.110;9.372;2022-09-09T22:12:10;14.153183439240092;;;14.0;100.0
15558;BME280;7880;50.110;9.372;2022-09-09T22:17:11;14.193523541238392;;;14.0;100.0
15558;BME280;7880;50.110;9.372;2022-09-09T22:22:11;14.138055905792863;;;13.937;100.0
15558;BME280;7880;50.110;9.372;2022-09-09T22:27:16;13.94139820933924;;;13.687;100.0
15558;BME280;7880;50.110;9.372;2022-09-09T22:32:20;14.04729076011572;;;13.812;100.0
15558;BME280;7880;50.110;9.372;2022-09-09T22:37:23;13.890973230270902;;;13.75;100.0
15558;BME280;7880;50.110;9.372;2022-09-09T22:42:30;13.961568209115649;;;13.812;100.0
15558;BME280;7880;50.110;9.372;2022-09-09T22:47:45;14.1430984166509;;;13.937;100.0
15558;BME280;7880;50.110;9.372;2022-09-09T22:52:36;14.208651084289887;;;14.0;100.0
15558;BME280;7880;50.110;9.372;2022-09-09T22:57:47;14.067460784339346;;;13.937;100.0
